sensor_id;sensor_type;location;lat;lon;timestamp;temperature;humidity
69054;DHT22;56125;52.242;4.756;2023-11-21T00:03:17;19.30;61.40
69054;DHT22;56125;52.242;4.756;2023-11-21T00:08:19;19.30;61.30
69054;DHT22;56125;52.242;4.756;2023-11-21T00:13:20;19.30;61.50
69054;DHT22;56125;52.242;4.756;2023-11-21T00:18:22;19.30;61.50
69054;DHT22;56125;52.242;4.756;2023-11-21T00:23:23;19.30;61.40
69054;DHT22;56125;52.242;4.756;2023-11-21T00:28:25;19.20;62.30
69054;DHT22;56125;52.242;4.756;2023-11-21T00:33:26;19.20;61.20
69054;DHT22;56125;52.242;4.756;2023-11-21T00:38:28;19.20;61.10
69054;DHT22;56125;52.242;4.756;2023-11-21T00:43:29;19.20;60.90
69054;DHT22;56125;52.242;4.756;2023-11-21T00:48:30;19.20;61.10
69054;DHT22;56125;52.242;4.756;2023-11-21T00:53:31;19.20;60.70
69054;DHT22;56125;52.242;4.756;2023-11-21T00:58:32;19.20;62.00
69054;DHT22;56125;52.242;4.756;2023-11-21T01:03:33;19.20;60.90
69054;DHT22;56125;52.242;4.756;2023-11-21T01:08:34;19.20;60.60
69054;DHT22;56125;52.242;4.756;2023-11-21T01:13:36;19.10;60.70
69054;DHT22;56125;52.242;4.756;2023-11-21T01:18:37;19.10;60.60
69054;DHT22;56125;52.242;4.756;2023-11-21T01:23:38;19.10;60.60
69054;DHT22;56125;52.242;4.756;2023-11-21T01:28:39;19.10;60.50
69054;DHT22;56125;52.242;4.756;2023-11-21T01:33:41;19.10;60.70
69054;DHT22;56125;52.242;4.756;2023-11-21T01:38:42;19.10;60.40
69054;DHT22;56125;52.242;4.756;2023-11-21T01:43:43;19.10;60.60
69054;DHT22;56125;52.242;4.756;2023-11-21T01:48:44;19.10;60.50
69054;DHT22;56125;52.242;4.756;2023-11-21T01:53:46;19.10;60.40
69054;DHT22;56125;52.242;4.756;2023-11-21T01:58:47;19.10;60.50
69054;DHT22;56125;52.242;4.756;2023-11-21T02:03:49;19.10;60.50
69054;DHT22;56125;52.242;4.756;2023-11-21T02:08:50;19.10;60.60
69054;DHT22;56125;52.242;4.756;2023-11-21T02:13:51;19.10;60.40
69054;DHT22;56125;52.242;4.756;2023-11-21T02:18:54;19.10;60.60
69054;DHT22;56125;52.242;4.756;2023-11-21T02:23:56;19.00;60.50
69054;DHT22;56125;52.242;4.756;2023-11-21T02:28:57;19.00;60.50
69054;DHT22;56125;52.242;4.756;2023-11-21T02:33:59;19.00;60.50
69054;DHT22;56125;52.242;4.756;2023-11-21T02:39:00;19.00;60.50
69054;DHT22;56125;52.242;4.756;2023-11-21T02:44:01;19.00;60.40
69054;DHT22;56125;52.242;4.756;2023-11-21T02:49:03;19.00;60.50
69054;DHT22;56125;52.242;4.756;2023-11-21T02:54:05;19.00;60.20
69054;DHT22;56125;52.242;4.756;2023-11-21T02:59:07;19.00;60.50
69054;DHT22;56125;52.242;4.756;2023-11-21T03:04:08;19.00;60.40
69054;DHT22;56125;52.242;4.756;2023-11-21T03:09:09;19.00;60.40
69054;DHT22;56125;52.242;4.756;2023-11-21T03:14:10;19.00;60.30
69054;DHT22;56125;52.242;4.756;2023-11-21T03:19:11;19.00;61.50
69054;DHT22;56125;52.242;4.756;2023-11-21T03:24:12;19.00;60.40
69054;DHT22;56125;52.242;4.756;2023-11-21T03:29:13;18.90;60.30
69054;DHT22;56125;52.242;4.756;2023-11-21T03:34:19;18.90;60.40
69054;DHT22;56125;52.242;4.756;2023-11-21T03:39:20;18.90;60.30
69054;DHT22;56125;52.242;4.756;2023-11-21T03:44:22;18.90;60.40
69054;DHT22;56125;52.242;4.756;2023-11-21T03:49:23;18.90;60.40
69054;DHT22;56125;52.242;4.756;2023-11-21T03:54:25;18.90;60.40
69054;DHT22;56125;52.242;4.756;2023-11-21T03:59:26;18.90;60.30
69054;DHT22;56125;52.242;4.756;2023-11-21T04:04:27;18.90;60.40
69054;DHT22;56125;52.242;4.756;2023-11-21T04:09:28;18.90;60.40
69054;DHT22;56125;52.242;4.756;2023-11-21T04:14:29;18.90;60.40
69054;DHT22;56125;52.242;4.756;2023-11-21T04:19:30;18.90;60.40
69054;DHT22;56125;52.242;4.756;2023-11-21T04:24:31;18.90;61.40
69054;DHT22;56125;52.242;4.756;2023-11-21T04:29:32;18.90;60.30
69054;DHT22;56125;52.242;4.756;2023-11-21T04:34:33;18.80;60.40
69054;DHT22;56125;52.242;4.756;2023-11-21T04:39:35;18.80;60.40
69054;DHT22;56125;52.242;4.756;2023-11-21T04:44:36;18.80;60.40
69054;DHT22;56125;52.242;4.756;2023-11-21T04:49:37;18.80;60.40
69054;DHT22;56125;52.242;4.756;2023-11-21T04:54:38;18.80;60.40
69054;DHT22;56125;52.242;4.756;2023-11-21T04:59:40;18.80;60.40
69054;DHT22;56125;52.242;4.756;2023-11-21T05:04:41;18.80;60.40
69054;DHT22;56125;52.242;4.756;2023-11-21T05:09:43;18.80;60.40
69054;DHT22;56125;52.242;4.756;2023-11-21T05:14:47;18.80;60.50
69054;DHT22;56125;52.242;4.756;2023-11-21T05:19:48;18.80;60.50
69054;DHT22;56125;52.242;4.756;2023-11-21T05:24:49;18.70;60.50
69054;DHT22;56125;52.242;4.756;2023-11-21T05:29:51;18.80;60.50
69054;DHT22;56125;52.242;4.756;2023-11-21T05:34:52;18.80;60.50
69054;DHT22;56125;52.242;4.756;2023-11-21T05:39:53;18.70;60.50
69054;DHT22;56125;52.242;4.756;2023-11-21T05:44:57;18.70;60.60
69054;DHT22;56125;52.242;4.756;2023-11-21T05:50:00;18.70;60.60
69054;DHT22;56125;52.242;4.756;2023-11-21T05:55:01;18.70;60.70
69054;DHT22;56125;52.242;4.756;2023-11-21T06:00:13;18.70;60.70
69054;DHT22;56125;52.242;4.756;2023-11-21T06:05:26;18.70;60.70
69054;DHT22;56125;52.242;4.756;2023-11-21T06:10:28;18.70;60.80
69054;DHT22;56125;52.242;4.756;2023-11-21T06:15:29;18.70;60.80
69054;DHT22;56125;52.242;4.756;2023-11-21T06:20:30;18.70;60.80
69054;DHT22;56125;52.242;4.756;2023-11-21T06:25:31;18.70;60.80
69054;DHT22;56125;52.242;4.756;2023-11-21T06:30:36;18.70;60.80
69054;DHT22;56125;52.242;4.756;2023-11-21T06:35:37;18.70;60.90
69054;DHT22;56125;52.242;4.756;2023-11-21T06:40:38;18.70;60.90
69054;DHT22;56125;52.242;4.756;2023-11-21T06:45:40;18.70;60.80
69054;DHT22;56125;52.242;4.756;2023-11-21T06:50:41;18.70;60.90
69054;DHT22;56125;52.242;4.756;2023-11-21T06:55:42;18.70;60.90
69054;DHT22;56125;52.242;4.756;2023-11-21T07:00:43;18.70;61.00
69054;DHT22;56125;52.242;4.756;2023-11-21T07:05:47;18.70;62.00
69054;DHT22;56125;52.242;4.756;2023-11-21T07:10:49;18.70;60.90
69054;DHT22;56125;52.242;4.756;2023-11-21T07:15:50;18.60;60.90
69054;DHT22;56125;52.242;4.756;2023-11-21T07:20:51;18.60;60.80
69054;DHT22;56125;52.242;4.756;2023-11-21T07:25:52;18.60;60.90
69054;DHT22;56125;52.242;4.756;2023-11-21T07:30:53;18.60;60.90
69054;DHT22;56125;52.242;4.756;2023-11-21T07:35:54;18.60;60.80
69054;DHT22;56125;52.242;4.756;2023-11-21T07:40:55;18.60;61.90
69054;DHT22;56125;52.242;4.756;2023-11-21T07:45:57;18.60;60.80
69054;DHT22;56125;52.242;4.756;2023-11-21T07:50:58;18.60;60.80
69054;DHT22;56125;52.242;4.756;2023-11-21T07:56:06;18.70;60.90
69054;DHT22;56125;52.242;4.756;2023-11-21T08:01:08;18.60;60.80
69054;DHT22;56125;52.242;4.756;2023-11-21T08:06:09;18.70;60.80
69054;DHT22;56125;52.242;4.756;2023-11-21T08:11:10;18.70;60.80
69054;DHT22;56125;52.242;4.756;2023-11-21T08:16:13;18.60;60.60
69054;DHT22;56125;52.242;4.756;2023-11-21T08:21:14;18.60;60.60
69054;DHT22;56125;52.242;4.756;2023-11-21T08:26:17;18.60;60.60
69054;DHT22;56125;52.242;4.756;2023-11-21T08:31:24;18.60;60.60
69054;DHT22;56125;52.242;4.756;2023-11-21T08:36:26;18.60;60.70
69054;DHT22;56125;52.242;4.756;2023-11-21T08:41:27;18.60;60.60
69054;DHT22;56125;52.242;4.756;2023-11-21T08:46:28;18.60;60.80
69054;DHT22;56125;52.242;4.756;2023-11-21T08:51:29;18.60;60.80
69054;DHT22;56125;52.242;4.756;2023-11-21T08:56:30;18.60;60.80
69054;DHT22;56125;52.242;4.756;2023-11-21T09:01:32;18.60;60.80
69054;DHT22;56125;52.242;4.756;2023-11-21T09:06:33;18.60;60.80
69054;DHT22;56125;52.242;4.756;2023-11-21T09:11:34;18.60;60.80
69054;DHT22;56125;52.242;4.756;2023-11-21T09:16:36;18.60;60.80
69054;DHT22;56125;52.242;4.756;2023-11-21T09:21:37;18.50;60.80
69054;DHT22;56125;52.242;4.756;2023-11-21T09:26:38;18.50;60.60
69054;DHT22;56125;52.242;4.756;2023-11-21T09:31:39;18.60;60.70
69054;DHT22;56125;52.242;4.756;2023-11-21T09:36:40;18.50;60.60
69054;DHT22;56125;52.242;4.756;2023-11-21T09:41:46;18.60;60.70
69054;DHT22;56125;52.242;4.756;2023-11-21T09:46:50;18.50;60.60
69054;DHT22;56125;52.242;4.756;2023-11-21T09:51:55;18.50;60.60
69054;DHT22;56125;52.242;4.756;2023-11-21T09:56:59;18.50;60.60
69054;DHT22;56125;52.242;4.756;2023-11-21T10:02:00;18.50;60.60
69054;DHT22;56125;52.242;4.756;2023-11-21T10:07:03;18.50;60.50
69054;DHT22;56125;52.242;4.756;2023-11-21T10:12:10;18.50;60.50
69054;DHT22;56125;52.242;4.756;2023-11-21T10:17:14;18.50;60.50
69054;DHT22;56125;52.242;4.756;2023-11-21T10:22:20;18.50;60.50
69054;DHT22;56125;52.242;4.756;2023-11-21T10:27:21;18.50;60.50
69054;DHT22;56125;52.242;4.756;2023-11-21T10:32:28;18.50;60.50
69054;DHT22;56125;52.242;4.756;2023-11-21T10:37:29;18.50;60.40
69054;DHT22;56125;52.242;4.756;2023-11-21T10:42:32;18.50;60.40
69054;DHT22;56125;52.242;4.756;2023-11-21T10:47:33;18.50;60.30
69054;DHT22;56125;52.242;4.756;2023-11-21T10:52:37;18.50;60.30
69054;DHT22;56125;52.242;4.756;2023-11-21T10:57:40;18.50;60.30
69054;DHT22;56125;52.242;4.756;2023-11-21T11:02:41;18.50;60.30
69054;DHT22;56125;52.242;4.756;2023-11-21T11:07:44;18.50;60.20
69054;DHT22;56125;52.242;4.756;2023-11-21T11:12:47;18.50;60.10
69054;DHT22;56125;52.242;4.756;2023-11-21T11:17:49;18.50;60.20
69054;DHT22;56125;52.242;4.756;2023-11-21T11:23:08;18.50;60.30
69054;DHT22;56125;52.242;4.756;2023-11-21T11:28:17;18.50;60.20
69054;DHT22;56125;52.242;4.756;2023-11-21T11:33:43;18.50;60.10
69054;DHT22;56125;52.242;4.756;2023-11-21T11:38:46;18.50;60.20
69054;DHT22;56125;52.242;4.756;2023-11-21T11:43:50;18.50;60.00
69054;DHT22;56125;52.242;4.756;2023-11-21T11:49:02;18.50;59.80
69054;DHT22;56125;52.242;4.756;2023-11-21T11:54:05;18.40;59.70
69054;DHT22;56125;52.242;4.756;2023-11-21T11:59:07;18.50;59.80
69054;DHT22;56125;52.242;4.756;2023-11-21T12:09:36;18.50;59.80
69054;DHT22;56125;52.242;4.756;2023-11-21T12:14:38;18.50;59.80
69054;DHT22;56125;52.242;4.756;2023-11-21T12:19:39;18.50;59.80
69054;DHT22;56125;52.242;4.756;2023-11-21T12:24:40;18.50;59.70
69054;DHT22;56125;52.242;4.756;2023-11-21T12:29:41;18.50;59.50
69054;DHT22;56125;52.242;4.756;2023-11-21T12:34:42;18.50;59.40
69054;DHT22;56125;52.242;4.756;2023-11-21T12:39:43;18.40;59.50
69054;DHT22;56125;52.242;4.756;2023-11-21T12:44:46;18.40;59.50
69054;DHT22;56125;52.242;4.756;2023-11-21T12:49:48;18.40;59.30
69054;DHT22;56125;52.242;4.756;2023-11-21T12:54:49;18.40;59.30
69054;DHT22;56125;52.242;4.756;2023-11-21T12:59:50;18.40;59.50
69054;DHT22;56125;52.242;4.756;2023-11-21T13:04:53;18.40;59.30
69054;DHT22;56125;52.242;4.756;2023-11-21T13:09:54;18.40;59.20
69054;DHT22;56125;52.242;4.756;2023-11-21T13:14:56;18.40;59.10
69054;DHT22;56125;52.242;4.756;2023-11-21T13:19:57;18.40;59.20
69054;DHT22;56125;52.242;4.756;2023-11-21T13:24:58;18.40;59.20
69054;DHT22;56125;52.242;4.756;2023-11-21T13:29:59;18.50;60.50
69054;DHT22;56125;52.242;4.756;2023-11-21T13:35:00;18.50;59.50
69054;DHT22;56125;52.242;4.756;2023-11-21T13:40:01;18.40;59.40
69054;DHT22;56125;52.242;4.756;2023-11-21T13:45:10;18.40;59.60
69054;DHT22;56125;52.242;4.756;2023-11-21T13:50:13;18.40;59.50
69054;DHT22;56125;52.242;4.756;2023-11-21T13:55:20;18.40;59.60
69054;DHT22;56125;52.242;4.756;2023-11-21T14:00:23;18.40;59.30
69054;DHT22;56125;52.242;4.756;2023-11-21T14:05:45;18.40;59.40
69054;DHT22;56125;52.242;4.756;2023-11-21T14:10:49;18.40;59.30
69054;DHT22;56125;52.242;4.756;2023-11-21T14:15:54;18.40;59.40
69054;DHT22;56125;52.242;4.756;2023-11-21T14:21:03;18.40;59.20
69054;DHT22;56125;52.242;4.756;2023-11-21T14:26:06;18.40;59.20
69054;DHT22;56125;52.242;4.756;2023-11-21T14:31:08;18.40;59.20
69054;DHT22;56125;52.242;4.756;2023-11-21T14:36:14;18.40;59.20
69054;DHT22;56125;52.242;4.756;2023-11-21T14:41:16;18.40;59.60
69054;DHT22;56125;52.242;4.756;2023-11-21T14:46:17;18.40;60.90
69054;DHT22;56125;52.242;4.756;2023-11-21T14:51:20;18.40;61.00
69054;DHT22;56125;52.242;4.756;2023-11-21T14:56:31;18.50;59.90
69054;DHT22;56125;52.242;4.756;2023-11-21T15:01:34;18.50;59.90
69054;DHT22;56125;52.242;4.756;2023-11-21T15:06:54;18.50;59.80
69054;DHT22;56125;52.242;4.756;2023-11-21T15:12:02;18.50;59.80
69054;DHT22;56125;52.242;4.756;2023-11-21T15:17:16;18.50;60.10
69054;DHT22;56125;52.242;4.756;2023-11-21T15:22:25;18.50;60.40
69054;DHT22;56125;52.242;4.756;2023-11-21T15:27:28;18.50;60.40
69054;DHT22;56125;52.242;4.756;2023-11-21T15:32:29;18.50;60.70
69054;DHT22;56125;52.242;4.756;2023-11-21T15:37:30;18.60;60.70
69054;DHT22;56125;52.242;4.756;2023-11-21T15:42:31;18.60;60.70
69054;DHT22;56125;52.242;4.756;2023-11-21T15:47:32;18.60;60.40
69054;DHT22;56125;52.242;4.756;2023-11-21T15:52:33;18.60;60.50
69054;DHT22;56125;52.242;4.756;2023-11-21T15:57:45;18.60;60.60
69054;DHT22;56125;52.242;4.756;2023-11-21T16:02:50;18.60;60.70
69054;DHT22;56125;52.242;4.756;2023-11-21T16:07:53;18.60;60.10
69054;DHT22;56125;52.242;4.756;2023-11-21T16:12:55;18.60;59.80
69054;DHT22;56125;52.242;4.756;2023-11-21T16:17:58;18.60;59.70
69054;DHT22;56125;52.242;4.756;2023-11-21T16:22:59;18.60;59.40
69054;DHT22;56125;52.242;4.756;2023-11-21T16:28:00;18.60;59.20
69054;DHT22;56125;52.242;4.756;2023-11-21T16:33:04;18.60;59.10
69054;DHT22;56125;52.242;4.756;2023-11-21T16:38:05;18.60;59.10
69054;DHT22;56125;52.242;4.756;2023-11-21T16:43:09;18.50;58.60
69054;DHT22;56125;52.242;4.756;2023-11-21T16:48:10;18.50;58.30
69054;DHT22;56125;52.242;4.756;2023-11-21T16:53:11;18.50;57.80
69054;DHT22;56125;52.242;4.756;2023-11-21T16:58:12;18.50;58.00
69054;DHT22;56125;52.242;4.756;2023-11-21T17:03:13;18.50;57.80
69054;DHT22;56125;52.242;4.756;2023-11-21T17:08:14;18.50;57.50
69054;DHT22;56125;52.242;4.756;2023-11-21T17:13:17;18.50;57.20
69054;DHT22;56125;52.242;4.756;2023-11-21T17:18:18;18.40;57.20
69054;DHT22;56125;52.242;4.756;2023-11-21T17:23:19;18.40;57.10
69054;DHT22;56125;52.242;4.756;2023-11-21T17:28:20;18.40;58.10
69054;DHT22;56125;52.242;4.756;2023-11-21T17:33:22;18.40;57.10
69054;DHT22;56125;52.242;4.756;2023-11-21T17:38:23;18.40;57.30
69054;DHT22;56125;52.242;4.756;2023-11-21T17:43:24;18.40;58.00
69054;DHT22;56125;52.242;4.756;2023-11-21T17:48:25;18.40;57.90
69054;DHT22;56125;52.242;4.756;2023-11-21T17:53:30;18.40;58.00
69054;DHT22;56125;52.242;4.756;2023-11-21T17:58:31;18.40;58.00
69054;DHT22;56125;52.242;4.756;2023-11-21T18:03:32;18.40;57.90
69054;DHT22;56125;52.242;4.756;2023-11-21T18:08:33;18.40;58.90
69054;DHT22;56125;52.242;4.756;2023-11-21T18:13:35;18.40;59.10
69054;DHT22;56125;52.242;4.756;2023-11-21T18:18:37;18.40;59.40
69054;DHT22;56125;52.242;4.756;2023-11-21T18:23:38;18.40;59.20
69054;DHT22;56125;52.242;4.756;2023-11-21T18:28:39;18.40;59.00
69054;DHT22;56125;52.242;4.756;2023-11-21T18:33:40;18.40;59.00
69054;DHT22;56125;52.242;4.756;2023-11-21T18:38:42;18.40;58.70
69054;DHT22;56125;52.242;4.756;2023-11-21T18:43:43;18.40;58.50
69054;DHT22;56125;52.242;4.756;2023-11-21T18:48:44;18.40;58.50
69054;DHT22;56125;52.242;4.756;2023-11-21T18:53:48;18.30;58.50
69054;DHT22;56125;52.242;4.756;2023-11-21T18:58:52;18.40;58.40
69054;DHT22;56125;52.242;4.756;2023-11-21T19:03:54;18.30;58.00
69054;DHT22;56125;52.242;4.756;2023-11-21T19:08:56;18.40;58.80
69054;DHT22;56125;52.242;4.756;2023-11-21T19:13:57;18.40;58.60
69054;DHT22;56125;52.242;4.756;2023-11-21T19:18:58;18.40;59.10
69054;DHT22;56125;52.242;4.756;2023-11-21T19:23:59;18.40;60.80
69054;DHT22;56125;52.242;4.756;2023-11-21T19:29:00;18.50;62.70
69054;DHT22;56125;52.242;4.756;2023-11-21T19:34:01;18.60;66.30
69054;DHT22;56125;52.242;4.756;2023-11-21T19:39:02;18.70;67.60
69054;DHT22;56125;52.242;4.756;2023-11-21T19:44:03;18.80;68.60
69054;DHT22;56125;52.242;4.756;2023-11-21T19:49:04;18.80;68.00
69054;DHT22;56125;52.242;4.756;2023-11-21T19:54:09;18.70;65.40
69054;DHT22;56125;52.242;4.756;2023-11-21T19:59:10;18.70;63.00
69054;DHT22;56125;52.242;4.756;2023-11-21T20:04:11;18.60;61.50
69054;DHT22;56125;52.242;4.756;2023-11-21T20:09:13;18.60;60.80
69054;DHT22;56125;52.242;4.756;2023-11-21T20:14:15;18.60;60.50
69054;DHT22;56125;52.242;4.756;2023-11-21T20:19:16;18.60;60.50
69054;DHT22;56125;52.242;4.756;2023-11-21T20:24:17;18.50;60.10
69054;DHT22;56125;52.242;4.756;2023-11-21T20:29:18;18.50;60.00
69054;DHT22;56125;52.242;4.756;2023-11-21T20:34:19;18.50;59.70
69054;DHT22;56125;52.242;4.756;2023-11-21T20:39:20;18.50;59.30
69054;DHT22;56125;52.242;4.756;2023-11-21T20:44:21;18.40;59.10
69054;DHT22;56125;52.242;4.756;2023-11-21T20:49:22;18.40;58.90
69054;DHT22;56125;52.242;4.756;2023-11-21T20:54:23;18.40;58.90
69054;DHT22;56125;52.242;4.756;2023-11-21T20:59:24;18.40;58.40
69054;DHT22;56125;52.242;4.756;2023-11-21T21:04:25;18.40;58.70
69054;DHT22;56125;52.242;4.756;2023-11-21T21:09:26;18.40;58.10
69054;DHT22;56125;52.242;4.756;2023-11-21T21:14:27;18.30;57.90
69054;DHT22;56125;52.242;4.756;2023-11-21T21:19:30;18.30;58.20
69054;DHT22;56125;52.242;4.756;2023-11-21T21:24:33;18.30;58.30
69054;DHT22;56125;52.242;4.756;2023-11-21T21:29:34;18.40;58.80
69054;DHT22;56125;52.242;4.756;2023-11-21T21:34:35;18.40;58.80
69054;DHT22;56125;52.242;4.756;2023-11-21T21:39:39;18.40;58.80
69054;DHT22;56125;52.242;4.756;2023-11-21T21:44:40;18.40;58.50
69054;DHT22;56125;52.242;4.756;2023-11-21T21:49:41;18.40;58.40
69054;DHT22;56125;52.242;4.756;2023-11-21T21:54:43;18.30;58.20
69054;DHT22;56125;52.242;4.756;2023-11-21T21:59:44;18.30;57.90
69054;DHT22;56125;52.242;4.756;2023-11-21T22:04:45;18.30;57.70
69054;DHT22;56125;52.242;4.756;2023-11-21T22:09:46;18.30;57.80
69054;DHT22;56125;52.242;4.756;2023-11-21T22:14:47;18.20;57.60
69054;DHT22;56125;52.242;4.756;2023-11-21T22:19:48;18.30;57.70
69054;DHT22;56125;52.242;4.756;2023-11-21T22:24:52;18.30;57.60
69054;DHT22;56125;52.242;4.756;2023-11-21T22:29:54;18.20;57.60
69054;DHT22;56125;52.242;4.756;2023-11-21T22:34:55;18.20;57.50
69054;DHT22;56125;52.242;4.756;2023-11-21T22:39:57;18.20;57.50
69054;DHT22;56125;52.242;4.756;2023-11-21T22:44:58;18.20;57.40
69054;DHT22;56125;52.242;4.756;2023-11-21T22:50:00;18.20;57.50
69054;DHT22;56125;52.242;4.756;2023-11-21T22:55:01;18.20;57.30
69054;DHT22;56125;52.242;4.756;2023-11-21T23:00:03;18.10;57.30
69054;DHT22;56125;52.242;4.756;2023-11-21T23:05:12;18.20;58.30
69054;DHT22;56125;52.242;4.756;2023-11-21T23:10:15;18.20;57.20
69054;DHT22;56125;52.242;4.756;2023-11-21T23:15:16;18.10;57.20
69054;DHT22;56125;52.242;4.756;2023-11-21T23:20:17;18.10;57.10
69054;DHT22;56125;52.242;4.756;2023-11-21T23:25:21;18.10;57.00
69054;DHT22;56125;52.242;4.756;2023-11-21T23:30:22;18.10;57.00
69054;DHT22;56125;52.242;4.756;2023-11-21T23:35:24;18.10;57.00
69054;DHT22;56125;52.242;4.756;2023-11-21T23:40:26;18.10;56.70
69054;DHT22;56125;52.242;4.756;2023-11-21T23:45:27;18.10;56.80
69054;DHT22;56125;52.242;4.756;2023-11-21T23:50:28;18.10;56.80
69054;DHT22;56125;52.242;4.756;2023-11-21T23:55:30;18.10;56.80
